sensor_id;sensor_type;location;lat;lon;timestamp;P1;durP1;ratioP1;P2;durP2;ratioP2
57561;SDS011;43397;51.530;5.974;2022-07-22T00:03:56;10.18;;;5.47;;
57561;SDS011;43397;51.530;5.974;2022-07-22T00:06:22;11.57;;;6.50;;
57561;SDS011;43397;51.530;5.974;2022-07-22T00:08:48;12.10;;;6.22;;
57561;SDS011;43397;51.530;5.974;2022-07-22T00:11:14;10.10;;;5.78;;
57561;SDS011;43397;51.530;5.974;2022-07-22T00:13:40;10.27;;;5.32;;
57561;SDS011;43397;51.530;5.974;2022-07-22T00:16:06;8.82;;;5.60;;
57561;SDS011;43397;51.530;5.974;2022-07-22T00:18:32;11.60;;;5.85;;
57561;SDS011;43397;51.530;5.974;2022-07-22T00:20:59;12.15;;;5.97;;
57561;SDS011;43397;51.530;5.974;2022-07-22T00:23:25;11.45;;;5.65;;
57561;SDS011;43397;51.530;5.974;2022-07-22T00:25:51;10.30;;;5.60;;
57561;SDS011;43397;51.530;5.974;2022-07-22T00:28:16;8.82;;;5.45;;
57561;SDS011;43397;51.530;5.974;2022-07-22T00:30:42;11.50;;;5.45;;
57561;SDS011;43397;51.530;5.974;2022-07-22T00:33:08;10.15;;;5.20;;
57561;SDS011;43397;51.530;5.974;2022-07-22T00:35:34;11.32;;;5.35;;
57561;SDS011;43397;51.530;5.974;2022-07-22T00:38:01;14.63;;;5.88;;
57561;SDS011;43397;51.530;5.974;2022-07-22T00:40:27;10.15;;;4.90;;
57561;SDS011;43397;51.530;5.974;2022-07-22T00:42:53;8.80;;;5.18;;
57561;SDS011;43397;51.530;5.974;2022-07-22T00:45:19;10.07;;;5.50;;
57561;SDS011;43397;51.530;5.974;2022-07-22T00:47:44;11.25;;;5.25;;
57561;SDS011;43397;51.530;5.974;2022-07-22T00:50:10;12.27;;;5.47;;
57561;SDS011;43397;51.530;5.974;2022-07-22T00:52:37;13.57;;;5.65;;
57561;SDS011;43397;51.530;5.974;2022-07-22T00:55:05;12.85;;;5.50;;
57561;SDS011;43397;51.530;5.974;2022-07-22T00:57:31;11.83;;;5.27;;
57561;SDS011;43397;51.530;5.974;2022-07-22T00:59:57;9.00;;;4.95;;
57561;SDS011;43397;51.530;5.974;2022-07-22T01:02:23;12.95;;;5.70;;
57561;SDS011;43397;51.530;5.974;2022-07-22T01:04:50;8.07;;;5.05;;
57561;SDS011;43397;51.530;5.974;2022-07-22T01:07:16;9.63;;;5.60;;
57561;SDS011;43397;51.530;5.974;2022-07-22T01:09:42;13.98;;;5.95;;
57561;SDS011;43397;51.530;5.974;2022-07-22T01:12:09;11.05;;;5.05;;
57561;SDS011;43397;51.530;5.974;2022-07-22T01:14:35;13.82;;;5.40;;
57561;SDS011;43397;51.530;5.974;2022-07-22T01:17:01;8.33;;;5.20;;
57561;SDS011;43397;51.530;5.974;2022-07-22T01:19:26;12.18;;;4.82;;
57561;SDS011;43397;51.530;5.974;2022-07-22T01:21:53;9.48;;;5.57;;
57561;SDS011;43397;51.530;5.974;2022-07-22T01:24:19;9.98;;;5.72;;
57561;SDS011;43397;51.530;5.974;2022-07-22T01:26:45;10.73;;;5.32;;
57561;SDS011;43397;51.530;5.974;2022-07-22T01:29:11;12.98;;;5.30;;
57561;SDS011;43397;51.530;5.974;2022-07-22T01:31:37;10.77;;;5.07;;
57561;SDS011;43397;51.530;5.974;2022-07-22T01:34:03;10.55;;;5.30;;
57561;SDS011;43397;51.530;5.974;2022-07-22T01:38:55;12.57;;;4.95;;
57561;SDS011;43397;51.530;5.974;2022-07-22T01:41:21;11.63;;;4.80;;
57561;SDS011;43397;51.530;5.974;2022-07-22T01:43:47;12.23;;;4.88;;
57561;SDS011;43397;51.530;5.974;2022-07-22T01:46:12;12.50;;;4.72;;
57561;SDS011;43397;51.530;5.974;2022-07-22T01:48:40;12.52;;;4.95;;
57561;SDS011;43397;51.530;5.974;2022-07-22T01:51:06;12.32;;;4.97;;
57561;SDS011;43397;51.530;5.974;2022-07-22T01:53:32;12.27;;;5.05;;
57561;SDS011;43397;51.530;5.974;2022-07-22T01:55:59;15.63;;;4.88;;
57561;SDS011;43397;51.530;5.974;2022-07-22T01:58:24;15.93;;;5.43;;
57561;SDS011;43397;51.530;5.974;2022-07-22T02:00:50;12.05;;;5.35;;
57561;SDS011;43397;51.530;5.974;2022-07-22T02:03:16;13.60;;;5.72;;
57561;SDS011;43397;51.530;5.974;2022-07-22T02:05:42;13.40;;;5.80;;
57561;SDS011;43397;51.530;5.974;2022-07-22T02:08:09;14.27;;;5.20;;
57561;SDS011;43397;51.530;5.974;2022-07-22T02:10:35;11.35;;;5.93;;
57561;SDS011;43397;51.530;5.974;2022-07-22T02:13:03;11.25;;;5.20;;
57561;SDS011;43397;51.530;5.974;2022-07-22T02:17:55;13.20;;;5.35;;
57561;SDS011;43397;51.530;5.974;2022-07-22T02:20:21;9.45;;;4.75;;
57561;SDS011;43397;51.530;5.974;2022-07-22T02:22:47;10.10;;;5.13;;
57561;SDS011;43397;51.530;5.974;2022-07-22T02:25:13;10.60;;;5.25;;
57561;SDS011;43397;51.530;5.974;2022-07-22T02:27:39;13.02;;;5.38;;
57561;SDS011;43397;51.530;5.974;2022-07-22T02:30:08;14.43;;;5.47;;
57561;SDS011;43397;51.530;5.974;2022-07-22T02:32:35;14.07;;;5.32;;
57561;SDS011;43397;51.530;5.974;2022-07-22T02:35:01;13.20;;;5.50;;
57561;SDS011;43397;51.530;5.974;2022-07-22T02:37:27;12.93;;;5.15;;
57561;SDS011;43397;51.530;5.974;2022-07-22T02:39:52;10.50;;;5.53;;
57561;SDS011;43397;51.530;5.974;2022-07-22T02:42:18;11.43;;;5.57;;
57561;SDS011;43397;51.530;5.974;2022-07-22T02:44:44;11.55;;;4.88;;
57561;SDS011;43397;51.530;5.974;2022-07-22T02:47:11;11.23;;;5.05;;
57561;SDS011;43397;51.530;5.974;2022-07-22T02:49:37;12.93;;;5.03;;
57561;SDS011;43397;51.530;5.974;2022-07-22T02:52:03;10.25;;;5.30;;
57561;SDS011;43397;51.530;5.974;2022-07-22T02:56:54;10.80;;;5.35;;
57561;SDS011;43397;51.530;5.974;2022-07-22T02:59:20;13.88;;;6.63;;
57561;SDS011;43397;51.530;5.974;2022-07-22T03:01:45;13.13;;;5.90;;
57561;SDS011;43397;51.530;5.974;2022-07-22T03:04:13;11.35;;;5.53;;
57561;SDS011;43397;51.530;5.974;2022-07-22T03:06:39;11.85;;;5.82;;
57561;SDS011;43397;51.530;5.974;2022-07-22T03:09:05;11.65;;;6.32;;
57561;SDS011;43397;51.530;5.974;2022-07-22T03:11:31;11.23;;;6.05;;
57561;SDS011;43397;51.530;5.974;2022-07-22T03:13:57;12.07;;;5.55;;
57561;SDS011;43397;51.530;5.974;2022-07-22T03:16:22;12.80;;;6.45;;
57561;SDS011;43397;51.530;5.974;2022-07-22T03:18:48;12.55;;;6.43;;
57561;SDS011;43397;51.530;5.974;2022-07-22T03:21:16;10.57;;;5.45;;
57561;SDS011;43397;51.530;5.974;2022-07-22T03:23:41;10.32;;;5.50;;
57561;SDS011;43397;51.530;5.974;2022-07-22T03:26:07;10.48;;;5.55;;
57561;SDS011;43397;51.530;5.974;2022-07-22T03:28:33;11.25;;;5.22;;
57561;SDS011;43397;51.530;5.974;2022-07-22T03:30:59;12.02;;;5.65;;
57561;SDS011;43397;51.530;5.974;2022-07-22T03:33:25;9.13;;;4.70;;
57561;SDS011;43397;51.530;5.974;2022-07-22T03:35:51;11.40;;;4.55;;
57561;SDS011;43397;51.530;5.974;2022-07-22T03:38:18;9.93;;;5.82;;
57561;SDS011;43397;51.530;5.974;2022-07-22T03:40:44;14.25;;;5.15;;
57561;SDS011;43397;51.530;5.974;2022-07-22T03:43:10;10.80;;;5.13;;
57561;SDS011;43397;51.530;5.974;2022-07-22T03:45:35;14.25;;;6.22;;
57561;SDS011;43397;51.530;5.974;2022-07-22T03:48:01;13.73;;;5.28;;
57561;SDS011;43397;51.530;5.974;2022-07-22T03:50:27;13.75;;;6.35;;
57561;SDS011;43397;51.530;5.974;2022-07-22T03:52:53;11.82;;;5.97;;
57561;SDS011;43397;51.530;5.974;2022-07-22T03:55:20;11.82;;;5.22;;
57561;SDS011;43397;51.530;5.974;2022-07-22T03:57:46;13.18;;;6.25;;
57561;SDS011;43397;51.530;5.974;2022-07-22T04:00:12;11.07;;;6.00;;
57561;SDS011;43397;51.530;5.974;2022-07-22T04:02:40;13.60;;;6.07;;
57561;SDS011;43397;51.530;5.974;2022-07-22T04:05:06;9.45;;;5.47;;
57561;SDS011;43397;51.530;5.974;2022-07-22T04:07:32;11.07;;;6.10;;
57561;SDS011;43397;51.530;5.974;2022-07-22T04:09:58;13.35;;;5.72;;
57561;SDS011;43397;51.530;5.974;2022-07-22T04:12:25;14.82;;;6.35;;
57561;SDS011;43397;51.530;5.974;2022-07-22T04:14:51;12.77;;;6.70;;
57561;SDS011;43397;51.530;5.974;2022-07-22T04:17:16;13.18;;;5.35;;
57561;SDS011;43397;51.530;5.974;2022-07-22T04:19:42;13.00;;;6.13;;
57561;SDS011;43397;51.530;5.974;2022-07-22T04:22:08;11.82;;;6.53;;
57561;SDS011;43397;51.530;5.974;2022-07-22T04:24:34;14.13;;;6.03;;
57561;SDS011;43397;51.530;5.974;2022-07-22T04:27:00;11.27;;;6.95;;
57561;SDS011;43397;51.530;5.974;2022-07-22T04:29:27;13.05;;;6.47;;
57561;SDS011;43397;51.530;5.974;2022-07-22T04:31:53;13.73;;;6.95;;
57561;SDS011;43397;51.530;5.974;2022-07-22T04:34:19;12.82;;;6.97;;
57561;SDS011;43397;51.530;5.974;2022-07-22T04:36:45;13.48;;;6.78;;
57561;SDS011;43397;51.530;5.974;2022-07-22T04:39:10;14.20;;;6.82;;
57561;SDS011;43397;51.530;5.974;2022-07-22T04:41:36;14.75;;;6.78;;
57561;SDS011;43397;51.530;5.974;2022-07-22T04:44:02;14.55;;;7.05;;
57561;SDS011;43397;51.530;5.974;2022-07-22T04:48:56;12.05;;;7.18;;
57561;SDS011;43397;51.530;5.974;2022-07-22T04:51:21;13.75;;;6.78;;
57561;SDS011;43397;51.530;5.974;2022-07-22T04:53:47;14.48;;;6.95;;
57561;SDS011;43397;51.530;5.974;2022-07-22T04:56:13;12.45;;;6.82;;
57561;SDS011;43397;51.530;5.974;2022-07-22T04:58:39;12.75;;;6.95;;
57561;SDS011;43397;51.530;5.974;2022-07-22T05:01:05;12.55;;;5.97;;
57561;SDS011;43397;51.530;5.974;2022-07-22T05:05:57;11.15;;;5.03;;
57561;SDS011;43397;51.530;5.974;2022-07-22T05:08:23;12.10;;;6.43;;
57561;SDS011;43397;51.530;5.974;2022-07-22T05:10:48;12.45;;;6.28;;
57561;SDS011;43397;51.530;5.974;2022-07-22T05:13:14;9.32;;;5.70;;
57561;SDS011;43397;51.530;5.974;2022-07-22T05:15:40;14.38;;;5.93;;
57561;SDS011;43397;51.530;5.974;2022-07-22T05:18:06;10.48;;;5.88;;
57561;SDS011;43397;51.530;5.974;2022-07-22T05:20:32;12.57;;;5.82;;
57561;SDS011;43397;51.530;5.974;2022-07-22T05:22:59;15.68;;;6.40;;
57561;SDS011;43397;51.530;5.974;2022-07-22T05:25:25;10.18;;;5.57;;
57561;SDS011;43397;51.530;5.974;2022-07-22T05:27:51;11.05;;;5.40;;
57561;SDS011;43397;51.530;5.974;2022-07-22T05:30:18;10.32;;;5.70;;
57561;SDS011;43397;51.530;5.974;2022-07-22T05:32:44;12.90;;;5.85;;
57561;SDS011;43397;51.530;5.974;2022-07-22T05:35:10;13.23;;;5.35;;
57561;SDS011;43397;51.530;5.974;2022-07-22T05:37:36;11.45;;;4.97;;
57561;SDS011;43397;51.530;5.974;2022-07-22T05:40:04;10.63;;;5.60;;
57561;SDS011;43397;51.530;5.974;2022-07-22T05:44:55;15.80;;;5.22;;
57561;SDS011;43397;51.530;5.974;2022-07-22T05:47:21;14.85;;;5.70;;
57561;SDS011;43397;51.530;5.974;2022-07-22T05:49:47;12.95;;;5.72;;
57561;SDS011;43397;51.530;5.974;2022-07-22T05:52:13;12.95;;;6.30;;
57561;SDS011;43397;51.530;5.974;2022-07-22T05:54:39;11.57;;;5.75;;
57561;SDS011;43397;51.530;5.974;2022-07-22T05:57:06;12.07;;;4.68;;
57561;SDS011;43397;51.530;5.974;2022-07-22T05:59:32;9.30;;;5.50;;
57561;SDS011;43397;51.530;5.974;2022-07-22T06:01:57;11.32;;;5.25;;
57561;SDS011;43397;51.530;5.974;2022-07-22T06:04:23;13.02;;;5.50;;
57561;SDS011;43397;51.530;5.974;2022-07-22T06:06:49;13.35;;;7.85;;
57561;SDS011;43397;51.530;5.974;2022-07-22T06:09:15;15.40;;;6.95;;
57561;SDS011;43397;51.530;5.974;2022-07-22T06:11:41;11.23;;;6.80;;
57561;SDS011;43397;51.530;5.974;2022-07-22T06:14:09;16.33;;;7.57;;
57561;SDS011;43397;51.530;5.974;2022-07-22T06:16:34;14.98;;;7.72;;
57561;SDS011;43397;51.530;5.974;2022-07-22T06:19:00;16.33;;;7.32;;
57561;SDS011;43397;51.530;5.974;2022-07-22T06:21:27;15.40;;;6.68;;
57561;SDS011;43397;51.530;5.974;2022-07-22T06:23:53;13.38;;;7.63;;
57561;SDS011;43397;51.530;5.974;2022-07-22T06:26:18;15.02;;;7.47;;
57561;SDS011;43397;51.530;5.974;2022-07-22T06:28:44;15.48;;;7.32;;
57561;SDS011;43397;51.530;5.974;2022-07-22T06:31:11;12.80;;;7.15;;
57561;SDS011;43397;51.530;5.974;2022-07-22T06:33:37;12.57;;;7.20;;
57561;SDS011;43397;51.530;5.974;2022-07-22T06:36:03;11.77;;;5.78;;
57561;SDS011;43397;51.530;5.974;2022-07-22T06:40:55;11.48;;;6.10;;
57561;SDS011;43397;51.530;5.974;2022-07-22T06:43:21;13.25;;;5.32;;
57561;SDS011;43397;51.530;5.974;2022-07-22T06:45:47;13.88;;;6.53;;
57561;SDS011;43397;51.530;5.974;2022-07-22T06:48:14;12.93;;;6.47;;
57561;SDS011;43397;51.530;5.974;2022-07-22T06:50:40;14.23;;;6.32;;
57561;SDS011;43397;51.530;5.974;2022-07-22T06:53:06;12.65;;;6.45;;
57561;SDS011;43397;51.530;5.974;2022-07-22T06:55:32;12.68;;;6.18;;
57561;SDS011;43397;51.530;5.974;2022-07-22T06:57:58;12.32;;;6.70;;
57561;SDS011;43397;51.530;5.974;2022-07-22T07:00:24;15.82;;;6.68;;
57561;SDS011;43397;51.530;5.974;2022-07-22T07:02:49;14.50;;;6.75;;
57561;SDS011;43397;51.530;5.974;2022-07-22T07:05:17;11.65;;;5.70;;
57561;SDS011;43397;51.530;5.974;2022-07-22T07:07:42;10.82;;;5.97;;
57561;SDS011;43397;51.530;5.974;2022-07-22T07:10:08;13.77;;;6.10;;
57561;SDS011;43397;51.530;5.974;2022-07-22T07:12:34;12.93;;;5.97;;
57561;SDS011;43397;51.530;5.974;2022-07-22T07:15:00;11.20;;;5.95;;
57561;SDS011;43397;51.530;5.974;2022-07-22T07:17:26;13.25;;;5.82;;
57561;SDS011;43397;51.530;5.974;2022-07-22T07:19:52;14.98;;;6.05;;
57561;SDS011;43397;51.530;5.974;2022-07-22T07:22:19;13.48;;;5.95;;
57561;SDS011;43397;51.530;5.974;2022-07-22T07:24:45;16.25;;;5.70;;
57561;SDS011;43397;51.530;5.974;2022-07-22T07:27:10;11.55;;;5.38;;
57561;SDS011;43397;51.530;5.974;2022-07-22T07:29:36;11.18;;;5.40;;
57561;SDS011;43397;51.530;5.974;2022-07-22T07:32:02;11.52;;;4.97;;
57561;SDS011;43397;51.530;5.974;2022-07-22T07:34:28;9.70;;;5.13;;
57561;SDS011;43397;51.530;5.974;2022-07-22T07:36:54;11.38;;;5.07;;
57561;SDS011;43397;51.530;5.974;2022-07-22T07:39:21;12.60;;;5.22;;
57561;SDS011;43397;51.530;5.974;2022-07-22T07:41:47;10.88;;;5.22;;
57561;SDS011;43397;51.530;5.974;2022-07-22T07:44:13;9.68;;;4.75;;
57561;SDS011;43397;51.530;5.974;2022-07-22T07:46:38;11.30;;;4.18;;
57561;SDS011;43397;51.530;5.974;2022-07-22T07:49:04;7.30;;;3.42;;
57561;SDS011;43397;51.530;5.974;2022-07-22T07:54:02;8.20;;;3.80;;
57561;SDS011;43397;51.530;5.974;2022-07-22T07:58:56;8.27;;;3.50;;
57561;SDS011;43397;51.530;5.974;2022-07-22T08:01:22;6.28;;;3.75;;
57561;SDS011;43397;51.530;5.974;2022-07-22T08:03:47;9.23;;;3.53;;
57561;SDS011;43397;51.530;5.974;2022-07-22T08:06:13;5.38;;;2.70;;
57561;SDS011;43397;51.530;5.974;2022-07-22T08:08:39;8.52;;;3.25;;
57561;SDS011;43397;51.530;5.974;2022-07-22T08:11:05;9.13;;;3.13;;
57561;SDS011;43397;51.530;5.974;2022-07-22T08:15:57;9.50;;;4.20;;
57561;SDS011;43397;51.530;5.974;2022-07-22T08:18:23;7.78;;;3.50;;
57561;SDS011;43397;51.530;5.974;2022-07-22T08:20:49;8.25;;;3.65;;
57561;SDS011;43397;51.530;5.974;2022-07-22T08:23:15;8.93;;;3.80;;
57561;SDS011;43397;51.530;5.974;2022-07-22T08:25:42;8.40;;;3.22;;
57561;SDS011;43397;51.530;5.974;2022-07-22T08:28:08;6.80;;;3.10;;
57561;SDS011;43397;51.530;5.974;2022-07-22T08:30:33;6.38;;;2.97;;
57561;SDS011;43397;51.530;5.974;2022-07-22T08:33:01;9.40;;;3.63;;
57561;SDS011;43397;51.530;5.974;2022-07-22T08:35:28;10.00;;;4.22;;
57561;SDS011;43397;51.530;5.974;2022-07-22T08:37:54;10.43;;;4.15;;
57561;SDS011;43397;51.530;5.974;2022-07-22T08:40:20;7.32;;;3.75;;
57561;SDS011;43397;51.530;5.974;2022-07-22T08:42:47;4.88;;;2.42;;
57561;SDS011;43397;51.530;5.974;2022-07-22T08:45:15;7.10;;;2.38;;
57561;SDS011;43397;51.530;5.974;2022-07-22T08:47:43;5.82;;;2.80;;
57561;SDS011;43397;51.530;5.974;2022-07-22T08:50:10;11.43;;;2.70;;
57561;SDS011;43397;51.530;5.974;2022-07-22T08:52:37;7.82;;;2.30;;
57561;SDS011;43397;51.530;5.974;2022-07-22T08:55:03;8.57;;;2.50;;
57561;SDS011;43397;51.530;5.974;2022-07-22T08:57:29;5.18;;;2.30;;
57561;SDS011;43397;51.530;5.974;2022-07-22T08:59:56;7.40;;;2.50;;
57561;SDS011;43397;51.530;5.974;2022-07-22T09:02:23;7.35;;;2.25;;
57561;SDS011;43397;51.530;5.974;2022-07-22T09:04:50;6.30;;;2.40;;
57561;SDS011;43397;51.530;5.974;2022-07-22T09:07:24;8.70;;;2.42;;
57561;SDS011;43397;51.530;5.974;2022-07-22T09:09:50;7.03;;;2.60;;
57561;SDS011;43397;51.530;5.974;2022-07-22T09:12:18;8.85;;;2.45;;
57561;SDS011;43397;51.530;5.974;2022-07-22T09:14:44;8.63;;;3.10;;
57561;SDS011;43397;51.530;5.974;2022-07-22T09:17:24;9.52;;;3.67;;
57561;SDS011;43397;51.530;5.974;2022-07-22T09:19:51;8.00;;;3.20;;
57561;SDS011;43397;51.530;5.974;2022-07-22T09:22:30;7.72;;;3.97;;
57561;SDS011;43397;51.530;5.974;2022-07-22T09:24:57;8.25;;;3.67;;
57561;SDS011;43397;51.530;5.974;2022-07-22T09:27:23;8.50;;;3.47;;
57561;SDS011;43397;51.530;5.974;2022-07-22T09:29:50;8.75;;;3.53;;
57561;SDS011;43397;51.530;5.974;2022-07-22T09:32:16;7.25;;;3.40;;
57561;SDS011;43397;51.530;5.974;2022-07-22T09:34:42;11.57;;;4.10;;
57561;SDS011;43397;51.530;5.974;2022-07-22T09:37:08;7.80;;;3.80;;
57561;SDS011;43397;51.530;5.974;2022-07-22T09:39:35;10.40;;;3.92;;
57561;SDS011;43397;51.530;5.974;2022-07-22T09:42:02;8.32;;;3.47;;
57561;SDS011;43397;51.530;5.974;2022-07-22T09:44:29;6.20;;;2.90;;
57561;SDS011;43397;51.530;5.974;2022-07-22T09:46:55;10.23;;;3.60;;
57561;SDS011;43397;51.530;5.974;2022-07-22T09:49:30;8.27;;;4.00;;
57561;SDS011;43397;51.530;5.974;2022-07-22T09:51:57;6.68;;;3.50;;
57561;SDS011;43397;51.530;5.974;2022-07-22T09:54:25;9.35;;;3.80;;
57561;SDS011;43397;51.530;5.974;2022-07-22T09:56:53;9.00;;;3.10;;
57561;SDS011;43397;51.530;5.974;2022-07-22T09:59:19;8.00;;;3.40;;
57561;SDS011;43397;51.530;5.974;2022-07-22T10:01:45;8.68;;;3.30;;
57561;SDS011;43397;51.530;5.974;2022-07-22T10:04:15;7.50;;;3.00;;
57561;SDS011;43397;51.530;5.974;2022-07-22T10:06:45;7.03;;;3.30;;
57561;SDS011;43397;51.530;5.974;2022-07-22T10:09:14;6.37;;;2.97;;
57561;SDS011;43397;51.530;5.974;2022-07-22T10:11:42;7.45;;;3.53;;
57561;SDS011;43397;51.530;5.974;2022-07-22T10:14:10;8.80;;;3.70;;
57561;SDS011;43397;51.530;5.974;2022-07-22T10:16:36;8.80;;;2.92;;
57561;SDS011;43397;51.530;5.974;2022-07-22T10:19:02;8.35;;;3.38;;
57561;SDS011;43397;51.530;5.974;2022-07-22T10:21:30;8.50;;;3.90;;
57561;SDS011;43397;51.530;5.974;2022-07-22T10:24:07;8.25;;;3.35;;
57561;SDS011;43397;51.530;5.974;2022-07-22T10:26:47;5.63;;;3.03;;
57561;SDS011;43397;51.530;5.974;2022-07-22T10:29:26;9.40;;;3.20;;
57561;SDS011;43397;51.530;5.974;2022-07-22T10:34:40;7.38;;;3.10;;
57561;SDS011;43397;51.530;5.974;2022-07-22T10:37:17;10.18;;;3.67;;
57561;SDS011;43397;51.530;5.974;2022-07-22T10:40:11;8.43;;;3.85;;
57561;SDS011;43397;51.530;5.974;2022-07-22T10:45:30;9.68;;;3.55;;
57561;SDS011;43397;51.530;5.974;2022-07-22T10:47:58;7.85;;;3.60;;
57561;SDS011;43397;51.530;5.974;2022-07-22T10:50:38;7.20;;;3.10;;
57561;SDS011;43397;51.530;5.974;2022-07-22T10:53:06;7.32;;;3.10;;
57561;SDS011;43397;51.530;5.974;2022-07-22T10:55:34;9.00;;;3.72;;
57561;SDS011;43397;51.530;5.974;2022-07-22T10:58:10;7.95;;;3.45;;
57561;SDS011;43397;51.530;5.974;2022-07-22T11:01:23;9.18;;;3.70;;
57561;SDS011;43397;51.530;5.974;2022-07-22T11:03:51;7.03;;;3.47;;
57561;SDS011;43397;51.530;5.974;2022-07-22T11:06:20;6.28;;;3.42;;
57561;SDS011;43397;51.530;5.974;2022-07-22T11:08:50;8.50;;;3.72;;
57561;SDS011;43397;51.530;5.974;2022-07-22T11:11:18;8.00;;;3.80;;
57561;SDS011;43397;51.530;5.974;2022-07-22T11:13:44;8.00;;;3.30;;
57561;SDS011;43397;51.530;5.974;2022-07-22T11:16:17;6.85;;;3.58;;
57561;SDS011;43397;51.530;5.974;2022-07-22T11:18:46;5.75;;;3.58;;
57561;SDS011;43397;51.530;5.974;2022-07-22T11:21:13;6.50;;;3.20;;
57561;SDS011;43397;51.530;5.974;2022-07-22T11:23:41;7.22;;;3.58;;
57561;SDS011;43397;51.530;5.974;2022-07-22T11:26:07;7.28;;;4.10;;
57561;SDS011;43397;51.530;5.974;2022-07-22T11:28:38;9.20;;;3.90;;
57561;SDS011;43397;51.530;5.974;2022-07-22T11:33:31;10.45;;;3.88;;
57561;SDS011;43397;51.530;5.974;2022-07-22T11:36:02;7.40;;;4.32;;
57561;SDS011;43397;51.530;5.974;2022-07-22T11:38:39;7.22;;;4.03;;
57561;SDS011;43397;51.530;5.974;2022-07-22T11:41:05;8.68;;;3.38;;
57561;SDS011;43397;51.530;5.974;2022-07-22T11:43:37;5.70;;;3.33;;
57561;SDS011;43397;51.530;5.974;2022-07-22T11:46:03;6.78;;;3.25;;
57561;SDS011;43397;51.530;5.974;2022-07-22T11:48:29;9.30;;;3.85;;
57561;SDS011;43397;51.530;5.974;2022-07-22T11:50:58;7.97;;;3.70;;
57561;SDS011;43397;51.530;5.974;2022-07-22T11:53:26;8.50;;;3.97;;
57561;SDS011;43397;51.530;5.974;2022-07-22T11:55:55;7.38;;;3.65;;
57561;SDS011;43397;51.530;5.974;2022-07-22T11:58:35;13.00;;;3.60;;
57561;SDS011;43397;51.530;5.974;2022-07-22T12:01:03;5.65;;;2.88;;
57561;SDS011;43397;51.530;5.974;2022-07-22T12:03:29;5.68;;;3.10;;
57561;SDS011;43397;51.530;5.974;2022-07-22T12:05:56;7.10;;;3.10;;
57561;SDS011;43397;51.530;5.974;2022-07-22T12:08:22;7.65;;;3.20;;
57561;SDS011;43397;51.530;5.974;2022-07-22T12:10:49;6.03;;;3.08;;
57561;SDS011;43397;51.530;5.974;2022-07-22T12:13:15;7.30;;;3.08;;
57561;SDS011;43397;51.530;5.974;2022-07-22T12:15:41;5.68;;;2.97;;
57561;SDS011;43397;51.530;5.974;2022-07-22T12:18:17;6.22;;;2.97;;
57561;SDS011;43397;51.530;5.974;2022-07-22T12:20:43;9.80;;;3.83;;
57561;SDS011;43397;51.530;5.974;2022-07-22T12:23:09;7.55;;;3.70;;
57561;SDS011;43397;51.530;5.974;2022-07-22T12:25:50;5.07;;;2.83;;
57561;SDS011;43397;51.530;5.974;2022-07-22T12:28:17;7.57;;;3.60;;
57561;SDS011;43397;51.530;5.974;2022-07-22T12:30:42;8.57;;;3.10;;
57561;SDS011;43397;51.530;5.974;2022-07-22T12:33:12;7.03;;;3.90;;
57561;SDS011;43397;51.530;5.974;2022-07-22T12:35:38;10.80;;;4.10;;
57561;SDS011;43397;51.530;5.974;2022-07-22T12:38:05;6.95;;;3.00;;
57561;SDS011;43397;51.530;5.974;2022-07-22T12:40:32;6.03;;;3.60;;
57561;SDS011;43397;51.530;5.974;2022-07-22T12:43:00;7.25;;;3.70;;
57561;SDS011;43397;51.530;5.974;2022-07-22T12:45:29;8.52;;;3.40;;
57561;SDS011;43397;51.530;5.974;2022-07-22T12:47:56;11.23;;;4.25;;
57561;SDS011;43397;51.530;5.974;2022-07-22T12:50:30;8.95;;;3.80;;
57561;SDS011;43397;51.530;5.974;2022-07-22T12:52:58;6.90;;;3.17;;
57561;SDS011;43397;51.530;5.974;2022-07-22T12:55:25;6.73;;;3.60;;
57561;SDS011;43397;51.530;5.974;2022-07-22T12:57:52;7.47;;;3.53;;
57561;SDS011;43397;51.530;5.974;2022-07-22T13:00:20;9.98;;;3.95;;
57561;SDS011;43397;51.530;5.974;2022-07-22T13:02:47;6.03;;;2.95;;
57561;SDS011;43397;51.530;5.974;2022-07-22T13:05:14;8.25;;;3.08;;
57561;SDS011;43397;51.530;5.974;2022-07-22T13:07:40;6.35;;;2.60;;
57561;SDS011;43397;51.530;5.974;2022-07-22T13:10:06;7.50;;;2.80;;
57561;SDS011;43397;51.530;5.974;2022-07-22T13:12:33;8.70;;;3.55;;
57561;SDS011;43397;51.530;5.974;2022-07-22T13:14:59;9.15;;;2.95;;
57561;SDS011;43397;51.530;5.974;2022-07-22T13:17:26;8.25;;;4.53;;
57561;SDS011;43397;51.530;5.974;2022-07-22T13:19:52;7.55;;;3.60;;
57561;SDS011;43397;51.530;5.974;2022-07-22T13:22:17;6.80;;;2.80;;
57561;SDS011;43397;51.530;5.974;2022-07-22T13:24:43;8.68;;;3.72;;
57561;SDS011;43397;51.530;5.974;2022-07-22T13:27:10;8.52;;;3.22;;
57561;SDS011;43397;51.530;5.974;2022-07-22T13:29:36;7.45;;;2.72;;
57561;SDS011;43397;51.530;5.974;2022-07-22T13:32:02;7.70;;;3.90;;
57561;SDS011;43397;51.530;5.974;2022-07-22T13:34:31;11.60;;;5.38;;
57561;SDS011;43397;51.530;5.974;2022-07-22T13:36:56;9.05;;;3.58;;
57561;SDS011;43397;51.530;5.974;2022-07-22T13:39:22;8.02;;;3.67;;
57561;SDS011;43397;51.530;5.974;2022-07-22T13:41:49;7.63;;;4.32;;
57561;SDS011;43397;51.530;5.974;2022-07-22T13:44:15;9.98;;;3.97;;
57561;SDS011;43397;51.530;5.974;2022-07-22T13:46:41;7.57;;;3.92;;
57561;SDS011;43397;51.530;5.974;2022-07-22T13:49:06;8.65;;;3.85;;
57561;SDS011;43397;51.530;5.974;2022-07-22T13:51:35;7.63;;;3.60;;
57561;SDS011;43397;51.530;5.974;2022-07-22T13:54:01;8.43;;;3.70;;
57561;SDS011;43397;51.530;5.974;2022-07-22T13:56:27;7.90;;;3.60;;
57561;SDS011;43397;51.530;5.974;2022-07-22T13:58:53;8.77;;;3.90;;
57561;SDS011;43397;51.530;5.974;2022-07-22T14:01:19;8.18;;;3.70;;
57561;SDS011;43397;51.530;5.974;2022-07-22T14:03:45;7.75;;;2.83;;
57561;SDS011;43397;51.530;5.974;2022-07-22T14:06:10;9.25;;;3.88;;
57561;SDS011;43397;51.530;5.974;2022-07-22T14:08:38;6.05;;;3.35;;
57561;SDS011;43397;51.530;5.974;2022-07-22T14:11:04;6.65;;;3.30;;
57561;SDS011;43397;51.530;5.974;2022-07-22T14:13:30;7.28;;;3.40;;
57561;SDS011;43397;51.530;5.974;2022-07-22T14:15:56;7.63;;;3.53;;
57561;SDS011;43397;51.530;5.974;2022-07-22T14:18:21;6.85;;;3.40;;
57561;SDS011;43397;51.530;5.974;2022-07-22T14:20:47;8.27;;;3.40;;
57561;SDS011;43397;51.530;5.974;2022-07-22T14:23:13;8.52;;;3.58;;
57561;SDS011;43397;51.530;5.974;2022-07-22T14:25:40;6.28;;;3.53;;
57561;SDS011;43397;51.530;5.974;2022-07-22T14:28:06;6.47;;;3.78;;
57561;SDS011;43397;51.530;5.974;2022-07-22T14:30:32;7.18;;;3.78;;
57561;SDS011;43397;51.530;5.974;2022-07-22T14:32:58;6.40;;;3.67;;
57561;SDS011;43397;51.530;5.974;2022-07-22T14:35:25;7.88;;;4.00;;
57561;SDS011;43397;51.530;5.974;2022-07-22T14:37:51;8.20;;;3.20;;
57561;SDS011;43397;51.530;5.974;2022-07-22T14:40:17;8.02;;;4.40;;
57561;SDS011;43397;51.530;5.974;2022-07-22T14:42:44;7.72;;;3.28;;
57561;SDS011;43397;51.530;5.974;2022-07-22T14:45:10;9.85;;;3.50;;
57561;SDS011;43397;51.530;5.974;2022-07-22T14:47:35;8.15;;;3.38;;
57561;SDS011;43397;51.530;5.974;2022-07-22T14:50:02;9.13;;;3.15;;
57561;SDS011;43397;51.530;5.974;2022-07-22T14:52:28;7.93;;;3.38;;
57561;SDS011;43397;51.530;5.974;2022-07-22T14:54:54;6.93;;;3.30;;
57561;SDS011;43397;51.530;5.974;2022-07-22T14:57:20;6.22;;;3.47;;
57561;SDS011;43397;51.530;5.974;2022-07-22T14:59:47;9.02;;;3.90;;
57561;SDS011;43397;51.530;5.974;2022-07-22T15:02:13;8.63;;;4.28;;
57561;SDS011;43397;51.530;5.974;2022-07-22T15:04:39;5.85;;;3.05;;
57561;SDS011;43397;51.530;5.974;2022-07-22T15:07:04;8.32;;;3.72;;
57561;SDS011;43397;51.530;5.974;2022-07-22T15:09:30;8.35;;;3.08;;
57561;SDS011;43397;51.530;5.974;2022-07-22T15:11:56;6.68;;;2.90;;
57561;SDS011;43397;51.530;5.974;2022-07-22T15:14:22;8.73;;;4.10;;